Bracebridge, Canada
Current Conditions -  °F | °C
As of 6:00 PM on Friday 19 Dec 2014 (Local Time) from CYQA Reporting Station
Overcast Overcast  
Wind Chill: -11°   Ceiling: 6500
Heat Index: -7°   Visibility: 9mi
Dew Point: -9°   Wind: 6mph
Humidity: 86%   Direction: 340°NNW
Pressure: 30.2"   Gusts: NA
Location:  45.05°N, 79.32°W
Report Text: CYQA 192300Z AUTO 34005KT 9SM OVC065 M07/M09 A3020 RMK SLP247
Loading
Personal Weather Stations






























Interactive Weather Map New forecast layout! Learn more

10-Day Weather Forecast

Advertisements
Track Severe Weather on mobile